sensor_id;sensor_type;location;lat;lon;timestamp;temperature;humidity
5344;DHT22;2694;48.954;8.928;2023-04-25T00:02:04;8.90;99.90
5344;DHT22;2694;48.954;8.928;2023-04-25T00:04:33;8.90;99.90
5344;DHT22;2694;48.954;8.928;2023-04-25T00:07:00;8.90;99.90
5344;DHT22;2694;48.954;8.928;2023-04-25T00:09:28;8.90;99.90
5344;DHT22;2694;48.954;8.928;2023-04-25T00:11:55;8.90;99.90
5344;DHT22;2694;48.954;8.928;2023-04-25T00:14:22;8.90;99.90
5344;DHT22;2694;48.954;8.928;2023-04-25T00:16:49;8.90;99.90
5344;DHT22;2694;48.954;8.928;2023-04-25T00:19:17;8.90;99.90
5344;DHT22;2694;48.954;8.928;2023-04-25T00:21:45;8.90;99.90
5344;DHT22;2694;48.954;8.928;2023-04-25T00:24:12;8.90;99.90
5344;DHT22;2694;48.954;8.928;2023-04-25T00:26:39;8.80;99.90
5344;DHT22;2694;48.954;8.928;2023-04-25T00:29:06;8.80;99.90
5344;DHT22;2694;48.954;8.928;2023-04-25T00:31:33;8.70;99.90
5344;DHT22;2694;48.954;8.928;2023-04-25T00:34:00;8.60;99.90
5344;DHT22;2694;48.954;8.928;2023-04-25T00:36:27;8.60;99.90
5344;DHT22;2694;48.954;8.928;2023-04-25T00:38:56;8.50;99.90
5344;DHT22;2694;48.954;8.928;2023-04-25T00:41:23;8.50;99.90
5344;DHT22;2694;48.954;8.928;2023-04-25T00:43:51;8.50;99.90
5344;DHT22;2694;48.954;8.928;2023-04-25T00:46:18;8.40;99.90
5344;DHT22;2694;48.954;8.928;2023-04-25T00:48:45;8.40;99.90
5344;DHT22;2694;48.954;8.928;2023-04-25T00:51:15;8.40;99.90
5344;DHT22;2694;48.954;8.928;2023-04-25T00:53:43;8.40;99.90
5344;DHT22;2694;48.954;8.928;2023-04-25T00:56:11;8.30;99.90
5344;DHT22;2694;48.954;8.928;2023-04-25T00:58:38;8.40;99.90
5344;DHT22;2694;48.954;8.928;2023-04-25T01:01:07;8.50;99.90
5344;DHT22;2694;48.954;8.928;2023-04-25T01:03:37;8.70;99.90
5344;DHT22;2694;48.954;8.928;2023-04-25T01:06:07;8.70;99.90
5344;DHT22;2694;48.954;8.928;2023-04-25T01:08:34;8.70;99.90
5344;DHT22;2694;48.954;8.928;2023-04-25T01:11:01;8.70;99.90
5344;DHT22;2694;48.954;8.928;2023-04-25T01:13:31;8.70;99.90
5344;DHT22;2694;48.954;8.928;2023-04-25T01:15:59;8.70;99.90
5344;DHT22;2694;48.954;8.928;2023-04-25T01:18:26;8.70;99.90
5344;DHT22;2694;48.954;8.928;2023-04-25T01:20:53;8.70;99.90
5344;DHT22;2694;48.954;8.928;2023-04-25T01:23:22;8.60;99.90
5344;DHT22;2694;48.954;8.928;2023-04-25T01:25:50;8.50;99.90
5344;DHT22;2694;48.954;8.928;2023-04-25T01:28:17;8.50;99.90
5344;DHT22;2694;48.954;8.928;2023-04-25T01:30:44;8.50;99.90
5344;DHT22;2694;48.954;8.928;2023-04-25T01:33:12;8.50;99.90
5344;DHT22;2694;48.954;8.928;2023-04-25T01:35:40;8.40;99.90
5344;DHT22;2694;48.954;8.928;2023-04-25T01:38:07;8.30;99.90
5344;DHT22;2694;48.954;8.928;2023-04-25T01:40:38;8.10;99.90
5344;DHT22;2694;48.954;8.928;2023-04-25T01:43:06;8.10;99.90
5344;DHT22;2694;48.954;8.928;2023-04-25T01:45:36;9.20;99.90
5344;DHT22;2694;48.954;8.928;2023-04-25T01:48:05;8.10;99.90
5344;DHT22;2694;48.954;8.928;2023-04-25T01:50:32;8.20;99.90
5344;DHT22;2694;48.954;8.928;2023-04-25T01:52:59;8.20;99.90
5344;DHT22;2694;48.954;8.928;2023-04-25T01:55:27;8.20;99.90
5344;DHT22;2694;48.954;8.928;2023-04-25T01:57:55;8.20;99.90
5344;DHT22;2694;48.954;8.928;2023-04-25T02:00:22;8.30;99.90
5344;DHT22;2694;48.954;8.928;2023-04-25T02:02:49;8.20;99.90
5344;DHT22;2694;48.954;8.928;2023-04-25T02:05:19;8.30;99.90
5344;DHT22;2694;48.954;8.928;2023-04-25T02:07:47;8.40;99.90
5344;DHT22;2694;48.954;8.928;2023-04-25T02:10:14;8.30;99.90
5344;DHT22;2694;48.954;8.928;2023-04-25T02:12:41;8.30;99.90
5344;DHT22;2694;48.954;8.928;2023-04-25T02:15:10;8.30;99.90
5344;DHT22;2694;48.954;8.928;2023-04-25T02:17:37;8.30;99.90
5344;DHT22;2694;48.954;8.928;2023-04-25T02:20:05;8.30;99.90
5344;DHT22;2694;48.954;8.928;2023-04-25T02:22:33;8.30;99.90
5344;DHT22;2694;48.954;8.928;2023-04-25T02:25:01;8.30;99.90
5344;DHT22;2694;48.954;8.928;2023-04-25T02:27:30;8.40;99.90
5344;DHT22;2694;48.954;8.928;2023-04-25T02:29:57;8.40;99.90
5344;DHT22;2694;48.954;8.928;2023-04-25T02:32:25;8.40;99.90
5344;DHT22;2694;48.954;8.928;2023-04-25T02:34:52;8.40;99.90
5344;DHT22;2694;48.954;8.928;2023-04-25T02:37:19;8.50;99.90
5344;DHT22;2694;48.954;8.928;2023-04-25T02:39:46;8.40;99.90
5344;DHT22;2694;48.954;8.928;2023-04-25T02:42:13;8.50;99.90
5344;DHT22;2694;48.954;8.928;2023-04-25T02:44:41;8.40;99.90
5344;DHT22;2694;48.954;8.928;2023-04-25T02:47:08;8.40;99.90
5344;DHT22;2694;48.954;8.928;2023-04-25T02:49:37;8.40;99.90
5344;DHT22;2694;48.954;8.928;2023-04-25T02:52:04;8.30;99.90
5344;DHT22;2694;48.954;8.928;2023-04-25T02:54:31;8.40;99.90
5344;DHT22;2694;48.954;8.928;2023-04-25T02:56:58;8.40;99.90
5344;DHT22;2694;48.954;8.928;2023-04-25T02:59:25;8.30;99.90
5344;DHT22;2694;48.954;8.928;2023-04-25T03:01:52;8.20;99.90
5344;DHT22;2694;48.954;8.928;2023-04-25T03:04:19;8.10;99.90
5344;DHT22;2694;48.954;8.928;2023-04-25T03:06:47;7.90;99.90
5344;DHT22;2694;48.954;8.928;2023-04-25T03:09:15;8.00;99.90
5344;DHT22;2694;48.954;8.928;2023-04-25T03:11:43;7.90;99.90
5344;DHT22;2694;48.954;8.928;2023-04-25T03:14:10;8.00;99.90
5344;DHT22;2694;48.954;8.928;2023-04-25T03:16:37;8.00;99.90
5344;DHT22;2694;48.954;8.928;2023-04-25T03:19:04;8.10;99.90
5344;DHT22;2694;48.954;8.928;2023-04-25T03:21:32;8.00;99.90
5344;DHT22;2694;48.954;8.928;2023-04-25T03:24:02;8.20;99.90
5344;DHT22;2694;48.954;8.928;2023-04-25T03:26:30;8.20;99.90
5344;DHT22;2694;48.954;8.928;2023-04-25T03:28:56;8.30;99.90
5344;DHT22;2694;48.954;8.928;2023-04-25T03:31:23;8.30;99.90
5344;DHT22;2694;48.954;8.928;2023-04-25T03:33:50;8.30;99.90
5344;DHT22;2694;48.954;8.928;2023-04-25T03:36:17;8.40;99.90
5344;DHT22;2694;48.954;8.928;2023-04-25T03:38:44;8.40;99.90
5344;DHT22;2694;48.954;8.928;2023-04-25T03:41:12;8.40;99.90
5344;DHT22;2694;48.954;8.928;2023-04-25T03:43:39;8.30;99.90
5344;DHT22;2694;48.954;8.928;2023-04-25T03:46:06;8.30;99.90
5344;DHT22;2694;48.954;8.928;2023-04-25T03:48:33;8.30;99.90
5344;DHT22;2694;48.954;8.928;2023-04-25T03:51:00;8.40;99.90
5344;DHT22;2694;48.954;8.928;2023-04-25T03:53:26;8.40;99.90
5344;DHT22;2694;48.954;8.928;2023-04-25T03:55:53;8.40;99.90
5344;DHT22;2694;48.954;8.928;2023-04-25T03:58:22;8.40;99.90
5344;DHT22;2694;48.954;8.928;2023-04-25T04:00:50;8.40;99.90
5344;DHT22;2694;48.954;8.928;2023-04-25T04:03:16;8.30;99.90
5344;DHT22;2694;48.954;8.928;2023-04-25T04:05:43;8.10;99.90
5344;DHT22;2694;48.954;8.928;2023-04-25T04:08:10;8.10;99.90
5344;DHT22;2694;48.954;8.928;2023-04-25T04:10:37;8.00;99.90
5344;DHT22;2694;48.954;8.928;2023-04-25T04:13:04;8.10;99.90
5344;DHT22;2694;48.954;8.928;2023-04-25T04:15:32;8.10;99.90
5344;DHT22;2694;48.954;8.928;2023-04-25T04:17:59;8.10;99.90
5344;DHT22;2694;48.954;8.928;2023-04-25T04:20:28;8.10;99.90
5344;DHT22;2694;48.954;8.928;2023-04-25T04:22:56;8.00;99.90
5344;DHT22;2694;48.954;8.928;2023-04-25T04:25:23;8.00;99.90
5344;DHT22;2694;48.954;8.928;2023-04-25T04:27:50;8.10;99.90
5344;DHT22;2694;48.954;8.928;2023-04-25T04:30:20;8.10;99.90
5344;DHT22;2694;48.954;8.928;2023-04-25T04:32:50;8.10;99.90
5344;DHT22;2694;48.954;8.928;2023-04-25T04:35:18;8.10;99.90
5344;DHT22;2694;48.954;8.928;2023-04-25T04:37:45;8.20;99.90
5344;DHT22;2694;48.954;8.928;2023-04-25T04:40:13;8.20;99.90
5344;DHT22;2694;48.954;8.928;2023-04-25T04:42:41;8.30;99.90
5344;DHT22;2694;48.954;8.928;2023-04-25T04:45:09;8.30;99.90
5344;DHT22;2694;48.954;8.928;2023-04-25T04:47:36;8.30;99.90
5344;DHT22;2694;48.954;8.928;2023-04-25T04:50:07;8.40;99.90
5344;DHT22;2694;48.954;8.928;2023-04-25T04:52:35;8.40;99.90
5344;DHT22;2694;48.954;8.928;2023-04-25T04:55:02;8.50;99.90
5344;DHT22;2694;48.954;8.928;2023-04-25T04:57:29;8.60;99.90
5344;DHT22;2694;48.954;8.928;2023-04-25T04:59:58;8.50;99.90
5344;DHT22;2694;48.954;8.928;2023-04-25T05:02:25;8.40;99.90
5344;DHT22;2694;48.954;8.928;2023-04-25T05:04:52;8.30;99.90
5344;DHT22;2694;48.954;8.928;2023-04-25T05:07:20;8.30;99.90
5344;DHT22;2694;48.954;8.928;2023-04-25T05:09:47;8.40;99.90
5344;DHT22;2694;48.954;8.928;2023-04-25T05:12:14;8.40;99.90
5344;DHT22;2694;48.954;8.928;2023-04-25T05:14:41;8.30;99.90
5344;DHT22;2694;48.954;8.928;2023-04-25T05:17:08;8.40;99.90
5344;DHT22;2694;48.954;8.928;2023-04-25T05:19:35;8.50;99.90
5344;DHT22;2694;48.954;8.928;2023-04-25T05:22:02;8.60;99.90
5344;DHT22;2694;48.954;8.928;2023-04-25T05:24:30;8.80;99.90
5344;DHT22;2694;48.954;8.928;2023-04-25T05:26:57;8.90;99.90
5344;DHT22;2694;48.954;8.928;2023-04-25T05:29:24;8.80;99.90
5344;DHT22;2694;48.954;8.928;2023-04-25T05:31:51;8.70;99.90
5344;DHT22;2694;48.954;8.928;2023-04-25T05:34:18;8.70;99.90
5344;DHT22;2694;48.954;8.928;2023-04-25T05:36:45;8.70;99.90
5344;DHT22;2694;48.954;8.928;2023-04-25T05:39:15;8.70;99.90
5344;DHT22;2694;48.954;8.928;2023-04-25T05:41:43;8.70;99.90
5344;DHT22;2694;48.954;8.928;2023-04-25T05:44:10;8.70;99.90
5344;DHT22;2694;48.954;8.928;2023-04-25T05:46:37;8.70;99.90
5344;DHT22;2694;48.954;8.928;2023-04-25T05:49:04;8.80;99.90
5344;DHT22;2694;48.954;8.928;2023-04-25T05:51:31;9.00;99.90
5344;DHT22;2694;48.954;8.928;2023-04-25T05:53:58;9.00;99.90
5344;DHT22;2694;48.954;8.928;2023-04-25T05:56:25;9.10;99.90
5344;DHT22;2694;48.954;8.928;2023-04-25T05:58:53;9.30;99.90
5344;DHT22;2694;48.954;8.928;2023-04-25T06:01:21;9.40;99.90
5344;DHT22;2694;48.954;8.928;2023-04-25T06:03:48;9.50;99.90
5344;DHT22;2694;48.954;8.928;2023-04-25T06:06:15;9.60;99.90
5344;DHT22;2694;48.954;8.928;2023-04-25T06:08:41;9.60;99.90
5344;DHT22;2694;48.954;8.928;2023-04-25T06:11:08;9.70;99.90
5344;DHT22;2694;48.954;8.928;2023-04-25T06:13:35;9.90;99.90
5344;DHT22;2694;48.954;8.928;2023-04-25T06:16:04;10.10;99.90
5344;DHT22;2694;48.954;8.928;2023-04-25T06:18:31;10.30;99.90
5344;DHT22;2694;48.954;8.928;2023-04-25T06:20:58;10.50;99.90
5344;DHT22;2694;48.954;8.928;2023-04-25T06:23:25;10.50;99.90
5344;DHT22;2694;48.954;8.928;2023-04-25T06:25:52;10.70;99.90
5344;DHT22;2694;48.954;8.928;2023-04-25T06:28:19;10.90;99.90
5344;DHT22;2694;48.954;8.928;2023-04-25T06:30:47;11.10;99.90
5344;DHT22;2694;48.954;8.928;2023-04-25T06:33:15;11.10;99.90
5344;DHT22;2694;48.954;8.928;2023-04-25T06:35:42;11.10;99.90
5344;DHT22;2694;48.954;8.928;2023-04-25T06:38:09;10.90;99.90
5344;DHT22;2694;48.954;8.928;2023-04-25T06:40:36;10.40;99.90
5344;DHT22;2694;48.954;8.928;2023-04-25T06:43:03;10.20;99.90
5344;DHT22;2694;48.954;8.928;2023-04-25T06:45:30;10.00;99.90
5344;DHT22;2694;48.954;8.928;2023-04-25T06:47:57;10.00;99.90
5344;DHT22;2694;48.954;8.928;2023-04-25T06:50:25;9.80;99.90
5344;DHT22;2694;48.954;8.928;2023-04-25T06:52:52;9.60;99.90
5344;DHT22;2694;48.954;8.928;2023-04-25T06:55:19;9.50;99.90
5344;DHT22;2694;48.954;8.928;2023-04-25T06:57:46;9.20;99.90
5344;DHT22;2694;48.954;8.928;2023-04-25T07:00:14;9.10;99.90
5344;DHT22;2694;48.954;8.928;2023-04-25T07:02:41;8.90;99.90
5344;DHT22;2694;48.954;8.928;2023-04-25T07:05:09;8.90;99.90
5344;DHT22;2694;48.954;8.928;2023-04-25T07:07:38;9.00;99.90
5344;DHT22;2694;48.954;8.928;2023-04-25T07:10:06;9.00;99.90
5344;DHT22;2694;48.954;8.928;2023-04-25T07:12:32;8.90;99.90
5344;DHT22;2694;48.954;8.928;2023-04-25T07:14:59;8.80;99.90
5344;DHT22;2694;48.954;8.928;2023-04-25T07:17:31;8.80;99.90
5344;DHT22;2694;48.954;8.928;2023-04-25T07:19:59;8.80;99.90
5344;DHT22;2694;48.954;8.928;2023-04-25T07:22:26;9.00;99.90
5344;DHT22;2694;48.954;8.928;2023-04-25T07:24:54;9.00;99.90
5344;DHT22;2694;48.954;8.928;2023-04-25T07:27:21;9.10;99.90
5344;DHT22;2694;48.954;8.928;2023-04-25T07:29:48;9.10;99.90
5344;DHT22;2694;48.954;8.928;2023-04-25T07:32:15;9.00;99.90
5344;DHT22;2694;48.954;8.928;2023-04-25T07:34:42;9.10;99.90
5344;DHT22;2694;48.954;8.928;2023-04-25T07:37:09;9.10;99.90
5344;DHT22;2694;48.954;8.928;2023-04-25T07:39:36;9.20;99.90
5344;DHT22;2694;48.954;8.928;2023-04-25T07:42:05;9.30;99.90
5344;DHT22;2694;48.954;8.928;2023-04-25T07:44:33;9.40;99.90
5344;DHT22;2694;48.954;8.928;2023-04-25T07:47:04;9.60;99.90
5344;DHT22;2694;48.954;8.928;2023-04-25T07:49:32;9.70;99.90
5344;DHT22;2694;48.954;8.928;2023-04-25T07:52:00;9.80;99.90
5344;DHT22;2694;48.954;8.928;2023-04-25T07:54:27;9.90;99.90
5344;DHT22;2694;48.954;8.928;2023-04-25T07:56:54;10.00;99.90
5344;DHT22;2694;48.954;8.928;2023-04-25T07:59:22;10.20;99.90
5344;DHT22;2694;48.954;8.928;2023-04-25T08:01:49;10.40;99.90
5344;DHT22;2694;48.954;8.928;2023-04-25T08:04:16;10.50;99.90
5344;DHT22;2694;48.954;8.928;2023-04-25T08:06:44;10.40;99.90
5344;DHT22;2694;48.954;8.928;2023-04-25T08:09:13;10.40;99.90
5344;DHT22;2694;48.954;8.928;2023-04-25T08:11:41;10.50;99.90
5344;DHT22;2694;48.954;8.928;2023-04-25T08:14:08;10.50;99.90
5344;DHT22;2694;48.954;8.928;2023-04-25T08:16:36;10.60;99.90
5344;DHT22;2694;48.954;8.928;2023-04-25T08:19:03;10.50;99.90
5344;DHT22;2694;48.954;8.928;2023-04-25T08:21:30;10.30;99.90
5344;DHT22;2694;48.954;8.928;2023-04-25T08:23:58;10.40;99.90
5344;DHT22;2694;48.954;8.928;2023-04-25T08:26:25;10.50;99.90
5344;DHT22;2694;48.954;8.928;2023-04-25T08:28:52;10.50;99.90
5344;DHT22;2694;48.954;8.928;2023-04-25T08:31:19;10.40;99.90
5344;DHT22;2694;48.954;8.928;2023-04-25T08:33:47;10.40;99.90
5344;DHT22;2694;48.954;8.928;2023-04-25T08:36:15;10.30;99.90
5344;DHT22;2694;48.954;8.928;2023-04-25T08:38:43;10.20;99.90
5344;DHT22;2694;48.954;8.928;2023-04-25T08:41:11;10.00;99.90
5344;DHT22;2694;48.954;8.928;2023-04-25T08:43:42;10.00;99.90
5344;DHT22;2694;48.954;8.928;2023-04-25T08:46:09;9.80;99.90
5344;DHT22;2694;48.954;8.928;2023-04-25T08:48:40;9.70;99.90
5344;DHT22;2694;48.954;8.928;2023-04-25T08:51:10;9.60;99.90
5344;DHT22;2694;48.954;8.928;2023-04-25T08:53:39;9.60;99.90
5344;DHT22;2694;48.954;8.928;2023-04-25T08:56:08;9.50;99.90
5344;DHT22;2694;48.954;8.928;2023-04-25T08:58:38;9.30;99.90
5344;DHT22;2694;48.954;8.928;2023-04-25T09:01:05;9.30;99.90
5344;DHT22;2694;48.954;8.928;2023-04-25T09:03:32;9.40;99.90
5344;DHT22;2694;48.954;8.928;2023-04-25T09:06:00;9.50;99.90
5344;DHT22;2694;48.954;8.928;2023-04-25T09:08:29;9.50;99.90
5344;DHT22;2694;48.954;8.928;2023-04-25T09:10:56;9.40;99.90
5344;DHT22;2694;48.954;8.928;2023-04-25T09:13:27;9.50;99.90
5344;DHT22;2694;48.954;8.928;2023-04-25T09:15:56;9.50;99.90
5344;DHT22;2694;48.954;8.928;2023-04-25T09:18:24;9.40;99.90
5344;DHT22;2694;48.954;8.928;2023-04-25T09:20:52;9.30;99.90
5344;DHT22;2694;48.954;8.928;2023-04-25T09:23:22;9.20;99.90
5344;DHT22;2694;48.954;8.928;2023-04-25T09:25:52;9.00;99.90
5344;DHT22;2694;48.954;8.928;2023-04-25T09:28:23;8.90;99.90
5344;DHT22;2694;48.954;8.928;2023-04-25T09:30:55;8.80;99.90
5344;DHT22;2694;48.954;8.928;2023-04-25T09:33:28;8.40;99.90
5344;DHT22;2694;48.954;8.928;2023-04-25T09:36:02;7.80;99.90
5344;DHT22;2694;48.954;8.928;2023-04-25T09:38:31;7.40;99.90
5344;DHT22;2694;48.954;8.928;2023-04-25T09:40:59;7.30;99.90
5344;DHT22;2694;48.954;8.928;2023-04-25T09:43:27;7.40;99.90
5344;DHT22;2694;48.954;8.928;2023-04-25T09:45:55;7.40;99.90
5344;DHT22;2694;48.954;8.928;2023-04-25T09:48:26;7.30;99.90
5344;DHT22;2694;48.954;8.928;2023-04-25T09:51:07;7.40;99.90
5344;DHT22;2694;48.954;8.928;2023-04-25T09:53:34;7.50;99.90
5344;DHT22;2694;48.954;8.928;2023-04-25T09:56:06;7.60;99.90
5344;DHT22;2694;48.954;8.928;2023-04-25T09:58:34;7.60;99.90
5344;DHT22;2694;48.954;8.928;2023-04-25T10:01:03;7.60;99.90
5344;DHT22;2694;48.954;8.928;2023-04-25T10:03:32;7.70;99.90
5344;DHT22;2694;48.954;8.928;2023-04-25T10:06:01;7.60;99.90
5344;DHT22;2694;48.954;8.928;2023-04-25T10:08:31;7.60;99.90
5344;DHT22;2694;48.954;8.928;2023-04-25T10:11:00;7.60;99.90
5344;DHT22;2694;48.954;8.928;2023-04-25T10:13:30;7.70;99.90
5344;DHT22;2694;48.954;8.928;2023-04-25T10:15:58;7.70;99.90
5344;DHT22;2694;48.954;8.928;2023-04-25T10:18:27;7.80;99.90
5344;DHT22;2694;48.954;8.928;2023-04-25T10:20:55;7.90;99.90
5344;DHT22;2694;48.954;8.928;2023-04-25T10:23:23;7.90;99.90
5344;DHT22;2694;48.954;8.928;2023-04-25T10:25:51;8.00;99.90
5344;DHT22;2694;48.954;8.928;2023-04-25T10:28:19;7.90;99.90
5344;DHT22;2694;48.954;8.928;2023-04-25T10:31:00;8.10;99.90
5344;DHT22;2694;48.954;8.928;2023-04-25T10:33:35;7.90;99.90
5344;DHT22;2694;48.954;8.928;2023-04-25T10:36:09;7.90;99.90
5344;DHT22;2694;48.954;8.928;2023-04-25T10:38:37;7.90;99.90
5344;DHT22;2694;48.954;8.928;2023-04-25T10:41:04;7.70;99.90
5344;DHT22;2694;48.954;8.928;2023-04-25T10:43:37;7.60;99.90
5344;DHT22;2694;48.954;8.928;2023-04-25T10:46:21;7.70;99.90
5344;DHT22;2694;48.954;8.928;2023-04-25T10:48:49;7.80;99.90
5344;DHT22;2694;48.954;8.928;2023-04-25T10:51:22;7.80;99.90
5344;DHT22;2694;48.954;8.928;2023-04-25T10:53:58;7.80;99.90
5344;DHT22;2694;48.954;8.928;2023-04-25T10:56:26;7.70;99.90
5344;DHT22;2694;48.954;8.928;2023-04-25T10:59:07;7.70;99.90
5344;DHT22;2694;48.954;8.928;2023-04-25T11:01:38;7.80;99.90
5344;DHT22;2694;48.954;8.928;2023-04-25T11:04:05;8.00;99.90
5344;DHT22;2694;48.954;8.928;2023-04-25T11:06:42;8.10;99.90
5344;DHT22;2694;48.954;8.928;2023-04-25T11:09:12;8.10;99.90
5344;DHT22;2694;48.954;8.928;2023-04-25T11:11:40;8.30;99.90
5344;DHT22;2694;48.954;8.928;2023-04-25T11:14:07;8.60;99.90
5344;DHT22;2694;48.954;8.928;2023-04-25T11:16:34;8.80;99.90
5344;DHT22;2694;48.954;8.928;2023-04-25T11:19:03;8.70;99.90
5344;DHT22;2694;48.954;8.928;2023-04-25T11:21:31;8.80;99.90
5344;DHT22;2694;48.954;8.928;2023-04-25T11:23:59;8.40;99.90
5344;DHT22;2694;48.954;8.928;2023-04-25T11:26:26;8.40;99.90
5344;DHT22;2694;48.954;8.928;2023-04-25T11:28:57;8.40;99.90
5344;DHT22;2694;48.954;8.928;2023-04-25T11:31:25;8.50;99.90
5344;DHT22;2694;48.954;8.928;2023-04-25T11:33:53;8.40;99.90
5344;DHT22;2694;48.954;8.928;2023-04-25T11:36:22;8.50;99.90
5344;DHT22;2694;48.954;8.928;2023-04-25T11:38:50;8.50;99.90
5344;DHT22;2694;48.954;8.928;2023-04-25T11:41:18;8.40;99.90
5344;DHT22;2694;48.954;8.928;2023-04-25T11:43:46;8.40;99.90
5344;DHT22;2694;48.954;8.928;2023-04-25T11:46:13;8.30;99.90
5344;DHT22;2694;48.954;8.928;2023-04-25T11:48:40;8.40;99.90
5344;DHT22;2694;48.954;8.928;2023-04-25T11:51:07;8.60;99.90
5344;DHT22;2694;48.954;8.928;2023-04-25T11:53:35;8.70;99.90
5344;DHT22;2694;48.954;8.928;2023-04-25T11:56:09;8.90;99.90
5344;DHT22;2694;48.954;8.928;2023-04-25T11:58:55;9.10;99.90
5344;DHT22;2694;48.954;8.928;2023-04-25T12:01:27;9.30;99.90
5344;DHT22;2694;48.954;8.928;2023-04-25T12:03:54;9.50;99.90
5344;DHT22;2694;48.954;8.928;2023-04-25T12:06:23;9.60;99.90
5344;DHT22;2694;48.954;8.928;2023-04-25T12:09:04;9.80;99.90
5344;DHT22;2694;48.954;8.928;2023-04-25T12:11:31;9.60;99.90
5344;DHT22;2694;48.954;8.928;2023-04-25T12:14:02;9.40;99.90
5344;DHT22;2694;48.954;8.928;2023-04-25T12:16:39;9.40;99.90
5344;DHT22;2694;48.954;8.928;2023-04-25T12:19:08;9.60;99.90
5344;DHT22;2694;48.954;8.928;2023-04-25T12:21:35;9.80;99.90
5344;DHT22;2694;48.954;8.928;2023-04-25T12:24:11;9.60;99.90
5344;DHT22;2694;48.954;8.928;2023-04-25T12:26:47;9.30;99.90
5344;DHT22;2694;48.954;8.928;2023-04-25T12:29:18;9.10;99.90
5344;DHT22;2694;48.954;8.928;2023-04-25T12:31:45;8.90;99.90
5344;DHT22;2694;48.954;8.928;2023-04-25T12:34:12;8.70;99.90
5344;DHT22;2694;48.954;8.928;2023-04-25T12:36:39;8.60;99.90
5344;DHT22;2694;48.954;8.928;2023-04-25T12:39:06;8.40;99.90
5344;DHT22;2694;48.954;8.928;2023-04-25T12:41:35;8.40;99.90
5344;DHT22;2694;48.954;8.928;2023-04-25T12:44:03;8.50;99.90
5344;DHT22;2694;48.954;8.928;2023-04-25T12:46:30;8.60;99.90
5344;DHT22;2694;48.954;8.928;2023-04-25T12:48:57;8.50;99.90
5344;DHT22;2694;48.954;8.928;2023-04-25T12:51:26;8.50;99.90
5344;DHT22;2694;48.954;8.928;2023-04-25T12:53:54;8.50;99.90
5344;DHT22;2694;48.954;8.928;2023-04-25T12:56:21;8.40;99.90
5344;DHT22;2694;48.954;8.928;2023-04-25T12:58:49;8.60;99.90
5344;DHT22;2694;48.954;8.928;2023-04-25T13:01:16;9.00;99.90
5344;DHT22;2694;48.954;8.928;2023-04-25T13:03:43;9.10;99.90
5344;DHT22;2694;48.954;8.928;2023-04-25T13:06:10;9.20;99.90
5344;DHT22;2694;48.954;8.928;2023-04-25T13:08:38;9.40;99.90
5344;DHT22;2694;48.954;8.928;2023-04-25T13:11:06;9.60;99.90
5344;DHT22;2694;48.954;8.928;2023-04-25T13:13:33;9.70;99.90
5344;DHT22;2694;48.954;8.928;2023-04-25T13:16:02;9.60;99.90
5344;DHT22;2694;48.954;8.928;2023-04-25T13:18:29;9.80;99.90
5344;DHT22;2694;48.954;8.928;2023-04-25T13:20:57;10.00;99.90
5344;DHT22;2694;48.954;8.928;2023-04-25T13:23:26;10.00;99.90
5344;DHT22;2694;48.954;8.928;2023-04-25T13:25:54;10.20;99.90
5344;DHT22;2694;48.954;8.928;2023-04-25T13:28:23;10.20;99.90
5344;DHT22;2694;48.954;8.928;2023-04-25T13:30:50;10.10;99.90
5344;DHT22;2694;48.954;8.928;2023-04-25T13:33:19;10.20;99.90
5344;DHT22;2694;48.954;8.928;2023-04-25T13:35:47;10.20;99.90
5344;DHT22;2694;48.954;8.928;2023-04-25T13:38:20;10.20;99.90
5344;DHT22;2694;48.954;8.928;2023-04-25T13:40:47;10.00;99.90
5344;DHT22;2694;48.954;8.928;2023-04-25T13:43:14;10.10;99.90
5344;DHT22;2694;48.954;8.928;2023-04-25T13:45:42;10.20;99.90
5344;DHT22;2694;48.954;8.928;2023-04-25T13:48:09;10.30;99.90
5344;DHT22;2694;48.954;8.928;2023-04-25T13:50:37;10.40;99.90
5344;DHT22;2694;48.954;8.928;2023-04-25T13:53:05;10.40;99.90
5344;DHT22;2694;48.954;8.928;2023-04-25T13:55:33;10.40;99.90
5344;DHT22;2694;48.954;8.928;2023-04-25T13:58:01;10.20;99.90
5344;DHT22;2694;48.954;8.928;2023-04-25T14:00:33;10.20;99.90
5344;DHT22;2694;48.954;8.928;2023-04-25T14:03:01;10.20;99.90
5344;DHT22;2694;48.954;8.928;2023-04-25T14:05:30;10.20;99.90
5344;DHT22;2694;48.954;8.928;2023-04-25T14:07:59;10.20;99.90
5344;DHT22;2694;48.954;8.928;2023-04-25T14:10:26;10.30;99.90
5344;DHT22;2694;48.954;8.928;2023-04-25T14:12:53;10.30;99.90
5344;DHT22;2694;48.954;8.928;2023-04-25T14:15:20;10.60;99.90
5344;DHT22;2694;48.954;8.928;2023-04-25T14:17:47;10.70;99.90
5344;DHT22;2694;48.954;8.928;2023-04-25T14:20:15;10.50;99.90
5344;DHT22;2694;48.954;8.928;2023-04-25T14:22:46;10.40;99.90
5344;DHT22;2694;48.954;8.928;2023-04-25T14:25:14;10.30;99.90
5344;DHT22;2694;48.954;8.928;2023-04-25T14:27:41;10.30;99.90
5344;DHT22;2694;48.954;8.928;2023-04-25T14:30:10;10.40;99.90
5344;DHT22;2694;48.954;8.928;2023-04-25T14:32:37;10.80;99.90
5344;DHT22;2694;48.954;8.928;2023-04-25T14:35:05;11.20;99.90
5344;DHT22;2694;48.954;8.928;2023-04-25T14:37:32;11.20;99.90
5344;DHT22;2694;48.954;8.928;2023-04-25T14:40:00;10.80;99.90
5344;DHT22;2694;48.954;8.928;2023-04-25T14:42:28;10.70;99.90
5344;DHT22;2694;48.954;8.928;2023-04-25T14:44:55;10.70;99.90
5344;DHT22;2694;48.954;8.928;2023-04-25T14:47:22;11.00;99.90
5344;DHT22;2694;48.954;8.928;2023-04-25T14:49:49;11.10;99.90
5344;DHT22;2694;48.954;8.928;2023-04-25T14:52:19;11.40;99.90
5344;DHT22;2694;48.954;8.928;2023-04-25T14:54:46;11.70;99.90
5344;DHT22;2694;48.954;8.928;2023-04-25T14:57:13;11.70;99.90
5344;DHT22;2694;48.954;8.928;2023-04-25T14:59:42;11.60;99.90
5344;DHT22;2694;48.954;8.928;2023-04-25T15:02:09;11.70;99.90
5344;DHT22;2694;48.954;8.928;2023-04-25T15:04:37;11.40;99.90
5344;DHT22;2694;48.954;8.928;2023-04-25T15:07:04;11.10;99.90
5344;DHT22;2694;48.954;8.928;2023-04-25T15:09:30;10.90;99.90
5344;DHT22;2694;48.954;8.928;2023-04-25T15:11:58;11.10;99.90
5344;DHT22;2694;48.954;8.928;2023-04-25T15:14:26;11.30;99.90
5344;DHT22;2694;48.954;8.928;2023-04-25T15:16:54;11.40;99.90
5344;DHT22;2694;48.954;8.928;2023-04-25T15:19:21;11.70;99.90
5344;DHT22;2694;48.954;8.928;2023-04-25T15:21:48;11.90;99.90
5344;DHT22;2694;48.954;8.928;2023-04-25T15:24:16;11.90;99.90
5344;DHT22;2694;48.954;8.928;2023-04-25T15:26:43;12.00;99.90
5344;DHT22;2694;48.954;8.928;2023-04-25T15:29:11;11.90;99.90
5344;DHT22;2694;48.954;8.928;2023-04-25T15:31:38;11.90;99.90
5344;DHT22;2694;48.954;8.928;2023-04-25T15:34:06;11.60;99.90
5344;DHT22;2694;48.954;8.928;2023-04-25T15:36:33;11.40;99.90
5344;DHT22;2694;48.954;8.928;2023-04-25T15:39:00;11.50;99.90
5344;DHT22;2694;48.954;8.928;2023-04-25T15:41:28;11.40;99.90
5344;DHT22;2694;48.954;8.928;2023-04-25T15:43:55;11.50;99.90
5344;DHT22;2694;48.954;8.928;2023-04-25T15:46:22;11.50;99.90
5344;DHT22;2694;48.954;8.928;2023-04-25T15:48:49;11.40;99.90
5344;DHT22;2694;48.954;8.928;2023-04-25T15:51:18;11.40;99.90
5344;DHT22;2694;48.954;8.928;2023-04-25T15:53:46;11.40;99.90
5344;DHT22;2694;48.954;8.928;2023-04-25T15:56:13;11.30;99.90
5344;DHT22;2694;48.954;8.928;2023-04-25T15:58:40;11.30;99.90
5344;DHT22;2694;48.954;8.928;2023-04-25T16:01:07;11.20;99.90
5344;DHT22;2694;48.954;8.928;2023-04-25T16:03:34;11.00;99.90
5344;DHT22;2694;48.954;8.928;2023-04-25T16:06:02;10.90;99.90
5344;DHT22;2694;48.954;8.928;2023-04-25T16:08:31;11.00;99.90
5344;DHT22;2694;48.954;8.928;2023-04-25T16:11:00;10.90;99.90
5344;DHT22;2694;48.954;8.928;2023-04-25T16:13:27;11.00;99.90
5344;DHT22;2694;48.954;8.928;2023-04-25T16:15:54;11.00;99.90
5344;DHT22;2694;48.954;8.928;2023-04-25T16:18:22;11.00;99.90
5344;DHT22;2694;48.954;8.928;2023-04-25T16:20:49;10.90;99.90